createdAt,value
2022-09-01T00:00:50.060Z,19
2022-09-01T00:03:22.846Z,18
2022-09-01T00:05:55.801Z,18
2022-09-01T00:08:28.601Z,19
2022-09-01T00:11:01.649Z,20
2022-09-01T00:13:34.484Z,16
2022-09-01T00:16:07.386Z,20
2022-09-01T00:18:40.437Z,16
2022-09-01T00:21:13.005Z,19
2022-09-01T00:23:45.388Z,16
2022-09-01T00:26:17.990Z,16
2022-09-01T00:28:50.630Z,20
2022-09-01T00:31:23.589Z,16
2022-09-01T00:33:55.544Z,16
2022-09-01T00:36:28.227Z,20
2022-09-01T00:39:03.925Z,20
2022-09-01T00:41:36.607Z,16
2022-09-01T00:44:09.124Z,17
2022-09-01T00:46:47.823Z,16
2022-09-01T00:49:26.987Z,20
2022-09-01T00:51:59.389Z,20
2022-09-01T00:54:32.160Z,16
2022-09-01T00:57:04.725Z,16
2022-09-01T00:59:37.337Z,20
2022-09-01T01:02:08.588Z,17
2022-09-01T01:04:40.920Z,17
2022-09-01T01:07:13.685Z,20
2022-09-01T01:09:46.138Z,20
2022-09-01T01:12:18.924Z,18
2022-09-01T01:14:51.624Z,19
2022-09-01T01:17:24.263Z,16
2022-09-01T01:23:01.555Z,20
2022-09-01T01:25:34.705Z,16
2022-09-01T01:28:07.291Z,17
2022-09-01T01:30:39.839Z,20
2022-09-01T01:33:12.639Z,16
2022-09-01T01:35:45.359Z,20
2022-09-01T01:38:18.378Z,20
2022-09-01T01:40:53.864Z,17
2022-09-01T01:43:26.422Z,20
2022-09-01T01:45:58.800Z,20
2022-09-01T01:48:31.377Z,16
2022-09-01T01:51:03.996Z,20
2022-09-01T01:53:39.623Z,20
2022-09-01T01:56:11.996Z,18
2022-09-01T01:58:43.129Z,20
2022-09-01T02:01:15.586Z,16
2022-09-01T02:03:48.623Z,20
2022-09-01T02:06:19.329Z,19
2022-09-01T02:08:52.564Z,17
2022-09-01T02:11:25.745Z,16
2022-09-01T02:13:58.455Z,18
2022-09-01T02:16:31.051Z,16
2022-09-01T02:19:02.353Z,16
2022-09-01T02:21:35.025Z,20
2022-09-01T02:24:07.846Z,20
2022-09-01T02:26:40.732Z,20
2022-09-01T02:29:14.679Z,16
2022-09-01T02:31:47.180Z,17
2022-09-01T02:34:19.960Z,17
2022-09-01T02:36:53.792Z,20
2022-09-01T02:39:26.401Z,20
2022-09-01T02:41:59.027Z,20
2022-09-01T02:44:31.676Z,20
2022-09-01T02:47:04.410Z,20
2022-09-01T02:49:37.433Z,20
2022-09-01T02:52:13.775Z,20
2022-09-01T02:54:46.007Z,20
2022-09-01T02:57:17.976Z,20
2022-09-01T02:59:50.134Z,20
2022-09-01T03:02:22.532Z,18
2022-09-01T03:04:55.213Z,20
2022-09-01T03:07:27.918Z,20
2022-09-01T03:10:00.531Z,20
2022-09-01T03:12:33.220Z,20
2022-09-01T03:15:05.859Z,20
2022-09-01T03:17:43.873Z,20
2022-09-01T03:20:16.587Z,20
2022-09-01T03:22:49.122Z,16
2022-09-01T03:25:21.823Z,19
2022-09-01T03:27:54.152Z,20
2022-09-01T03:30:26.619Z,24
2022-09-01T03:32:59.028Z,24
2022-09-01T03:35:31.823Z,24
2022-09-01T03:38:04.366Z,24
2022-09-01T03:40:37.081Z,20
2022-09-01T03:43:09.733Z,24
2022-09-01T03:45:42.406Z,24
2022-09-01T03:48:15.104Z,27
2022-09-01T03:50:47.526Z,24
2022-09-01T03:53:20.179Z,20
2022-09-01T03:55:53.167Z,24
2022-09-01T03:58:26.524Z,20
2022-09-01T04:00:59.071Z,21
2022-09-01T04:03:31.946Z,20
2022-09-01T04:06:05.021Z,22
2022-09-01T04:08:37.634Z,20
2022-09-01T04:11:10.835Z,20
2022-09-01T04:13:43.838Z,20
2022-09-01T04:16:16.579Z,24
2022-09-01T04:18:49.429Z,20
2022-09-01T04:21:22.316Z,20
2022-09-01T04:23:55.098Z,21
2022-09-01T04:26:28.044Z,23
2022-09-01T04:29:04.212Z,21
2022-09-01T04:31:37.202Z,22
2022-09-01T04:34:10.467Z,21
2022-09-01T04:36:43.680Z,24
2022-09-01T04:39:16.911Z,24
2022-09-01T04:41:50.169Z,24
2022-09-01T04:44:23.480Z,24
2022-09-01T04:46:56.685Z,24
2022-09-01T04:49:29.225Z,24
2022-09-01T04:52:02.541Z,24
2022-09-01T04:54:36.099Z,24
2022-09-01T04:57:09.298Z,27
2022-09-01T04:59:42.609Z,24
2022-09-01T05:02:15.915Z,24
2022-09-01T05:04:49.191Z,24
2022-09-01T05:07:21.929Z,24
2022-09-01T05:09:57.012Z,28
2022-09-01T05:12:33.228Z,28
2022-09-01T05:15:05.844Z,28
2022-09-01T05:17:36.921Z,24
2022-09-01T05:20:10.158Z,27
2022-09-01T05:22:43.157Z,24
2022-09-01T05:25:16.141Z,24
2022-09-01T05:27:49.224Z,24
2022-09-01T05:30:22.479Z,24
2022-09-01T05:32:55.860Z,24
2022-09-01T05:35:32.439Z,24
2022-09-01T05:38:04.558Z,24
2022-09-01T05:40:38.025Z,21
2022-09-01T05:43:11.337Z,24
2022-09-01T05:46:03.295Z,21
2022-09-01T05:48:37.905Z,20
2022-09-01T05:51:22.572Z,24
2022-09-01T05:54:21.166Z,20
2022-09-01T05:56:55.100Z,24
2022-09-01T05:59:28.549Z,24
2022-09-01T06:02:01.967Z,24
2022-09-01T06:04:35.458Z,28
2022-09-01T06:07:08.884Z,20
2022-09-01T06:09:47.500Z,20
2022-09-01T06:12:20.411Z,20
2022-09-01T06:14:53.148Z,20
2022-09-01T06:17:26.470Z,20
2022-09-01T06:19:59.709Z,20
2022-09-01T06:22:33.040Z,24
2022-09-01T06:25:06.189Z,20
2022-09-01T06:27:38.972Z,20
2022-09-01T06:30:12.006Z,20
2022-09-01T06:32:45.009Z,20
2022-09-01T06:35:18.237Z,16
2022-09-01T06:37:51.305Z,20
2022-09-01T06:40:24.494Z,16
2022-09-01T06:42:57.749Z,20
2022-09-01T06:45:30.694Z,20
2022-09-01T06:48:05.661Z,20
2022-09-01T06:53:52.071Z,20
2022-09-01T06:56:25.091Z,20
2022-09-01T06:59:03.492Z,20
2022-09-01T07:01:39.168Z,16
2022-09-01T07:04:13.494Z,16
2022-09-01T07:07:53.452Z,12
2022-09-01T07:11:19.431Z,12
2022-09-01T07:45:57.996Z,12
2022-09-01T07:54:06.648Z,8
2022-09-01T07:56:40.283Z,12
2022-09-01T07:59:12.766Z,8
2022-09-01T08:01:46.553Z,12
2022-09-01T08:04:19.705Z,10
2022-09-01T08:06:52.897Z,8
2022-09-01T08:09:27.316Z,10
2022-09-01T08:12:14.729Z,8
2022-09-01T08:14:47.027Z,8
2022-09-01T08:17:50.624Z,8
2022-09-01T08:20:23.913Z,8
2022-09-01T08:22:56.850Z,8
2022-09-01T08:25:29.720Z,9
2022-09-01T08:28:02.941Z,6
2022-09-01T08:30:35.924Z,8
2022-09-01T08:33:11.531Z,8
2022-09-01T08:35:43.521Z,12
2022-09-01T08:38:15.976Z,12
2022-09-01T08:40:49.055Z,12
2022-09-01T08:43:26.705Z,12
2022-09-01T08:45:58.736Z,12
2022-09-01T08:52:15.722Z,16
2022-09-01T08:54:48.042Z,16
2022-09-01T08:57:20.644Z,16
2022-09-01T08:59:53.580Z,16
2022-09-01T09:02:27.290Z,20
2022-09-01T09:05:00.293Z,24
2022-09-01T09:07:32.692Z,16
2022-09-01T09:10:05.661Z,12
2022-09-01T09:12:48.844Z,12
2022-09-01T09:15:20.340Z,12
2022-09-01T09:17:54.781Z,12
2022-09-01T09:20:32.376Z,12
2022-09-01T09:23:05.934Z,16
2022-09-01T09:25:38.801Z,12
2022-09-01T09:28:12.668Z,12
2022-09-01T09:30:44.397Z,10
2022-09-01T09:33:47.503Z,11
2022-09-01T09:36:25.472Z,15
2022-09-01T09:38:58.121Z,8
2022-09-01T09:41:33.472Z,10
2022-09-01T09:44:09.202Z,12
2022-09-01T09:46:43.605Z,12
2022-09-01T09:49:17.242Z,15
2022-09-01T09:52:04.884Z,16
2022-09-01T09:54:38.499Z,13
2022-09-01T09:57:11.472Z,16
2022-09-01T10:00:00.751Z,19
2022-09-01T10:02:32.390Z,18
2022-09-01T10:05:06.101Z,16
2022-09-01T10:07:38.575Z,20
2022-09-01T10:10:11.895Z,17
2022-09-01T10:12:45.942Z,16
2022-09-01T10:15:18.990Z,20
2022-09-01T10:17:51.650Z,16
2022-09-01T10:21:01.678Z,16
2022-09-01T10:23:36.083Z,16
2022-09-01T10:26:11.711Z,16
2022-09-01T10:28:50.031Z,12
2022-09-01T10:31:32.097Z,16
2022-09-01T10:34:05.347Z,16
2022-09-01T10:36:38.341Z,16
2022-09-01T10:39:10.342Z,17
2022-09-01T10:41:43.123Z,19
2022-09-01T10:44:15.729Z,16
2022-09-01T10:46:51.140Z,20
2022-09-01T10:49:37.781Z,16
2022-09-01T10:52:13.930Z,13
2022-09-01T10:54:53.049Z,20
2022-09-01T10:57:26.998Z,20
2022-09-01T11:00:02.691Z,20
2022-09-01T11:03:29.567Z,20
2022-09-01T11:06:22.053Z,18
2022-09-01T11:08:55.541Z,20
2022-09-01T11:11:29.731Z,20
2022-09-01T11:14:02.934Z,20
2022-09-01T11:16:51.640Z,16
2022-09-01T11:19:24.371Z,20
2022-09-01T11:21:59.048Z,20
2022-09-01T11:24:32.247Z,20
2022-09-01T11:27:05.380Z,20
2022-09-01T11:29:38.466Z,20
2022-09-01T11:32:11.410Z,20
2022-09-01T11:34:50.497Z,20
2022-09-01T11:37:22.721Z,20
2022-09-01T11:39:58.403Z,20
2022-09-01T11:42:31.781Z,20
2022-09-01T11:45:04.745Z,18
2022-09-01T11:47:38.714Z,20
2022-09-01T11:50:11.828Z,16
2022-09-01T11:52:44.853Z,20
2022-09-01T11:55:17.760Z,20
2022-09-01T11:57:50.009Z,20
2022-09-01T12:00:22.732Z,20
2022-09-01T12:02:54.446Z,20
2022-09-01T12:05:27.850Z,20
2022-09-01T12:08:00.790Z,20
2022-09-01T12:10:32.779Z,20
2022-09-01T12:13:05.290Z,20
2022-09-01T12:15:39.298Z,20
2022-09-01T12:18:49.380Z,20
2022-09-01T12:21:21.922Z,16
2022-09-01T12:23:54.561Z,20
2022-09-01T12:26:27.171Z,20
2022-09-01T12:28:59.800Z,22
2022-09-01T12:31:32.520Z,20
2022-09-01T12:34:06.388Z,20
2022-09-01T12:36:39.038Z,20
2022-09-01T12:39:11.900Z,20
2022-09-01T12:41:44.727Z,20
2022-09-01T12:44:17.620Z,20
2022-09-01T12:46:50.227Z,20
2022-09-01T12:49:22.931Z,20
2022-09-01T12:51:55.602Z,20
2022-09-01T12:54:28.610Z,20
2022-09-01T12:57:01.863Z,20
2022-09-01T12:59:35.952Z,20
2022-09-01T13:02:09.653Z,20
2022-09-01T13:04:42.941Z,20
2022-09-01T13:07:15.312Z,20
2022-09-01T13:09:47.707Z,20
2022-09-01T13:12:19.938Z,24
2022-09-01T13:14:52.244Z,24
2022-09-01T13:17:24.947Z,20
2022-09-01T13:19:57.545Z,24
2022-09-01T13:22:30.039Z,20
2022-09-01T13:25:03.356Z,20
2022-09-01T13:27:36.077Z,24
2022-09-01T13:30:08.497Z,20
2022-09-01T13:33:18.724Z,20
2022-09-01T13:36:53.633Z,20
2022-09-01T13:39:25.508Z,20
2022-09-01T13:41:57.728Z,20
2022-09-01T13:44:30.930Z,24
2022-09-01T13:50:08.805Z,20
2022-09-01T13:53:43.038Z,20
2022-09-01T13:56:14.908Z,20
2022-09-01T13:58:47.509Z,23
2022-09-01T14:01:20.176Z,20
2022-09-01T14:03:55.089Z,20
2022-09-01T14:06:31.789Z,20
2022-09-01T14:09:04.644Z,20
2022-09-01T14:11:36.914Z,20
2022-09-01T14:14:10.323Z,20
2022-09-01T14:16:42.941Z,20
2022-09-01T14:19:14.794Z,20
2022-09-01T14:21:47.604Z,20
2022-09-01T14:24:20.720Z,20
2022-09-01T14:26:53.307Z,20
2022-09-01T14:29:25.978Z,21
2022-09-01T14:31:58.329Z,20
2022-09-01T14:34:31.019Z,24
2022-09-01T14:37:03.667Z,23
2022-09-01T14:39:36.323Z,26
2022-09-01T14:42:08.519Z,20
2022-09-01T14:44:40.859Z,20
2022-09-01T14:47:19.154Z,23
2022-09-01T14:49:51.543Z,20
2022-09-01T14:52:23.827Z,16
2022-09-01T14:54:56.399Z,20
2022-09-01T14:57:31.826Z,17
2022-09-01T15:00:09.056Z,19
2022-09-01T15:02:41.561Z,20
2022-09-01T15:05:14.784Z,20
2022-09-01T15:07:46.907Z,17
2022-09-01T20:21:57.411Z,18
2022-09-01T20:24:28.347Z,20
2022-09-01T20:27:00.320Z,20
2022-09-01T20:29:34.549Z,20
2022-09-01T20:32:07.130Z,20
2022-09-01T20:34:39.577Z,16
2022-09-01T20:37:12.156Z,20
2022-09-01T20:39:44.801Z,16
2022-09-01T20:42:17.296Z,20
2022-09-01T20:44:49.752Z,16
2022-09-01T20:47:22.563Z,17
2022-09-01T20:49:54.923Z,20
2022-09-01T20:52:27.514Z,20
2022-09-01T20:54:59.909Z,20
2022-09-01T20:57:33.814Z,16
2022-09-01T21:00:06.736Z,20
2022-09-01T21:02:39.348Z,20
2022-09-01T21:05:12.259Z,20
2022-09-01T21:07:44.930Z,20
2022-09-01T21:10:17.647Z,20
2022-09-01T21:12:50.220Z,17
2022-09-01T21:15:22.537Z,19
2022-09-01T21:17:55.173Z,18
2022-09-01T21:20:27.841Z,20
2022-09-01T21:23:04.184Z,20
2022-09-01T21:25:37.908Z,20
2022-09-01T21:28:13.752Z,20
2022-09-01T21:30:46.377Z,20
2022-09-01T21:33:19.220Z,20
2022-09-01T21:35:51.875Z,20
2022-09-01T21:38:24.422Z,20
2022-09-01T21:40:56.550Z,20
2022-09-01T21:43:28.870Z,20
2022-09-01T21:46:01.359Z,19
2022-09-01T21:48:34.361Z,20
2022-09-01T21:51:06.437Z,20
2022-09-01T21:53:38.993Z,20
2022-09-01T21:56:11.318Z,20
2022-09-01T21:58:43.648Z,18
2022-09-01T22:01:21.697Z,20
2022-09-01T22:03:54.539Z,20
2022-09-01T22:06:26.846Z,20
2022-09-01T22:08:58.991Z,20
2022-09-01T22:11:31.518Z,20
2022-09-01T22:14:04.358Z,20
2022-09-01T22:16:36.982Z,20
2022-09-01T22:19:09.340Z,16
2022-09-01T22:21:41.647Z,17
2022-09-01T22:24:14.369Z,16
2022-09-01T22:26:51.110Z,20
2022-09-01T22:29:23.640Z,16
2022-09-01T22:31:56.587Z,19
2022-09-01T22:34:28.656Z,20
2022-09-01T22:37:01.248Z,16
2022-09-01T22:39:34.195Z,16
2022-09-01T22:42:06.914Z,16
2022-09-01T22:44:39.473Z,17
2022-09-01T22:47:13.394Z,16
2022-09-01T22:49:45.987Z,16
2022-09-01T22:52:18.539Z,17
2022-09-01T22:54:52.261Z,16
2022-09-01T22:57:24.529Z,16
2022-09-01T22:59:57.413Z,20
2022-09-01T23:02:28.953Z,20
2022-09-01T23:05:02.156Z,16
2022-09-01T23:07:37.339Z,20
2022-09-01T23:10:11.407Z,20
2022-09-01T23:12:44.721Z,19
2022-09-01T23:15:17.071Z,19
2022-09-01T23:17:49.644Z,16
2022-09-01T23:20:22.842Z,17
2022-09-01T23:22:55.790Z,16
2022-09-01T23:25:28.824Z,16
2022-09-01T23:28:01.706Z,16
2022-09-01T23:30:34.276Z,16
2022-09-01T23:33:07.061Z,16
2022-09-01T23:35:39.694Z,17
2022-09-01T23:38:12.312Z,16
2022-09-01T23:40:45.094Z,15
2022-09-01T23:43:18.240Z,12
2022-09-01T23:45:51.134Z,14
2022-09-01T23:48:24.276Z,12
2022-09-01T23:50:56.695Z,15
2022-09-01T23:53:29.698Z,12
2022-09-01T23:56:02.458Z,12
2022-09-01T23:58:35.345Z,12
